sensor_id;sensor_type;location;lat;lon;timestamp;temperature;humidity
50816;DHT22;39717;47.324;8.788;2022-07-05T00:01:09;16.70;99.90
50816;DHT22;39717;47.324;8.788;2022-07-05T00:03:35;16.80;99.90
50816;DHT22;39717;47.324;8.788;2022-07-05T00:06:01;16.80;99.90
50816;DHT22;39717;47.324;8.788;2022-07-05T00:08:26;16.80;99.90
50816;DHT22;39717;47.324;8.788;2022-07-05T00:10:53;16.90;99.90
50816;DHT22;39717;47.324;8.788;2022-07-05T00:13:19;16.90;99.90
50816;DHT22;39717;47.324;8.788;2022-07-05T00:15:45;17.00;99.90
50816;DHT22;39717;47.324;8.788;2022-07-05T00:18:11;17.10;99.90
50816;DHT22;39717;47.324;8.788;2022-07-05T00:20:36;17.10;99.90
50816;DHT22;39717;47.324;8.788;2022-07-05T00:23:02;17.20;99.90
50816;DHT22;39717;47.324;8.788;2022-07-05T00:25:28;17.20;99.90
50816;DHT22;39717;47.324;8.788;2022-07-05T00:27:54;17.20;99.90
50816;DHT22;39717;47.324;8.788;2022-07-05T00:30:19;17.20;99.90
50816;DHT22;39717;47.324;8.788;2022-07-05T00:32:45;17.30;99.90
50816;DHT22;39717;47.324;8.788;2022-07-05T00:35:12;17.30;99.90
50816;DHT22;39717;47.324;8.788;2022-07-05T00:37:38;17.30;99.90
50816;DHT22;39717;47.324;8.788;2022-07-05T00:40:05;17.30;99.90
50816;DHT22;39717;47.324;8.788;2022-07-05T00:42:33;17.30;99.90
50816;DHT22;39717;47.324;8.788;2022-07-05T00:44:59;17.40;99.90
50816;DHT22;39717;47.324;8.788;2022-07-05T00:47:25;17.40;99.90
50816;DHT22;39717;47.324;8.788;2022-07-05T00:49:51;17.30;99.90
50816;DHT22;39717;47.324;8.788;2022-07-05T00:52:17;17.30;99.90
50816;DHT22;39717;47.324;8.788;2022-07-05T00:54:42;17.30;99.90
50816;DHT22;39717;47.324;8.788;2022-07-05T00:57:08;17.30;99.90
50816;DHT22;39717;47.324;8.788;2022-07-05T00:59:34;17.30;99.90
50816;DHT22;39717;47.324;8.788;2022-07-05T01:02:00;17.30;99.90
50816;DHT22;39717;47.324;8.788;2022-07-05T01:04:26;17.40;99.90
50816;DHT22;39717;47.324;8.788;2022-07-05T01:06:53;17.40;99.90
50816;DHT22;39717;47.324;8.788;2022-07-05T01:09:21;17.40;99.90
50816;DHT22;39717;47.324;8.788;2022-07-05T01:11:48;17.40;99.90
50816;DHT22;39717;47.324;8.788;2022-07-05T01:14:19;17.40;99.90
50816;DHT22;39717;47.324;8.788;2022-07-05T01:16:46;17.40;99.90
50816;DHT22;39717;47.324;8.788;2022-07-05T01:19:13;17.40;99.90
50816;DHT22;39717;47.324;8.788;2022-07-05T01:21:41;17.40;99.90
50816;DHT22;39717;47.324;8.788;2022-07-05T01:24:16;17.40;99.90
50816;DHT22;39717;47.324;8.788;2022-07-05T01:26:45;17.40;99.90
50816;DHT22;39717;47.324;8.788;2022-07-05T01:29:11;17.30;99.90
50816;DHT22;39717;47.324;8.788;2022-07-05T01:31:38;17.30;99.90
50816;DHT22;39717;47.324;8.788;2022-07-05T01:34:05;17.30;99.90
50816;DHT22;39717;47.324;8.788;2022-07-05T01:36:32;17.30;99.90
50816;DHT22;39717;47.324;8.788;2022-07-05T01:39:00;17.30;99.90
50816;DHT22;39717;47.324;8.788;2022-07-05T01:41:26;17.30;99.90
50816;DHT22;39717;47.324;8.788;2022-07-05T01:43:52;17.30;99.90
50816;DHT22;39717;47.324;8.788;2022-07-05T01:46:21;17.30;99.90
50816;DHT22;39717;47.324;8.788;2022-07-05T01:48:51;17.30;99.90
50816;DHT22;39717;47.324;8.788;2022-07-05T01:51:24;17.30;99.90
50816;DHT22;39717;47.324;8.788;2022-07-05T01:53:53;17.40;99.90
50816;DHT22;39717;47.324;8.788;2022-07-05T01:56:19;17.40;99.90
50816;DHT22;39717;47.324;8.788;2022-07-05T01:58:45;17.40;99.90
50816;DHT22;39717;47.324;8.788;2022-07-05T02:01:12;17.40;99.90
50816;DHT22;39717;47.324;8.788;2022-07-05T02:03:40;17.30;99.90
50816;DHT22;39717;47.324;8.788;2022-07-05T02:06:06;17.30;99.90
50816;DHT22;39717;47.324;8.788;2022-07-05T02:08:34;17.30;99.90
50816;DHT22;39717;47.324;8.788;2022-07-05T02:11:00;17.20;99.90
50816;DHT22;39717;47.324;8.788;2022-07-05T02:13:25;17.20;99.90
50816;DHT22;39717;47.324;8.788;2022-07-05T02:15:51;17.10;99.90
50816;DHT22;39717;47.324;8.788;2022-07-05T02:18:17;17.10;99.90
50816;DHT22;39717;47.324;8.788;2022-07-05T02:20:43;17.10;99.90
50816;DHT22;39717;47.324;8.788;2022-07-05T02:23:09;17.00;99.90
50816;DHT22;39717;47.324;8.788;2022-07-05T02:25:35;16.90;99.90
50816;DHT22;39717;47.324;8.788;2022-07-05T02:28:00;16.80;99.90
50816;DHT22;39717;47.324;8.788;2022-07-05T02:30:27;16.70;99.90
50816;DHT22;39717;47.324;8.788;2022-07-05T02:32:53;16.60;99.90
50816;DHT22;39717;47.324;8.788;2022-07-05T02:35:19;16.60;99.90
50816;DHT22;39717;47.324;8.788;2022-07-05T02:37:45;16.60;99.90
50816;DHT22;39717;47.324;8.788;2022-07-05T02:40:13;16.70;99.90
50816;DHT22;39717;47.324;8.788;2022-07-05T02:42:39;16.70;99.90
50816;DHT22;39717;47.324;8.788;2022-07-05T02:45:06;16.70;99.90
50816;DHT22;39717;47.324;8.788;2022-07-05T02:47:34;16.70;99.90
50816;DHT22;39717;47.324;8.788;2022-07-05T02:50:04;16.70;99.90
50816;DHT22;39717;47.324;8.788;2022-07-05T02:52:30;16.60;99.90
50816;DHT22;39717;47.324;8.788;2022-07-05T02:54:56;16.60;99.90
50816;DHT22;39717;47.324;8.788;2022-07-05T02:57:22;16.50;99.90
50816;DHT22;39717;47.324;8.788;2022-07-05T02:59:48;16.40;99.90
50816;DHT22;39717;47.324;8.788;2022-07-05T03:02:13;16.40;99.90
50816;DHT22;39717;47.324;8.788;2022-07-05T03:04:39;16.50;99.90
50816;DHT22;39717;47.324;8.788;2022-07-05T03:07:05;16.50;99.90
50816;DHT22;39717;47.324;8.788;2022-07-05T03:09:31;16.50;99.90
50816;DHT22;39717;47.324;8.788;2022-07-05T03:11:58;16.50;99.90
50816;DHT22;39717;47.324;8.788;2022-07-05T03:14:24;16.50;99.90
50816;DHT22;39717;47.324;8.788;2022-07-05T03:16:50;16.40;99.90
50816;DHT22;39717;47.324;8.788;2022-07-05T03:19:16;16.40;99.90
50816;DHT22;39717;47.324;8.788;2022-07-05T03:21:42;16.40;99.90
50816;DHT22;39717;47.324;8.788;2022-07-05T03:24:09;16.40;99.90
50816;DHT22;39717;47.324;8.788;2022-07-05T03:26:35;16.50;99.90
50816;DHT22;39717;47.324;8.788;2022-07-05T03:29:01;16.50;99.90
50816;DHT22;39717;47.324;8.788;2022-07-05T03:31:27;16.50;99.90
50816;DHT22;39717;47.324;8.788;2022-07-05T03:33:52;16.50;99.90
50816;DHT22;39717;47.324;8.788;2022-07-05T03:36:18;16.50;99.90
50816;DHT22;39717;47.324;8.788;2022-07-05T03:38:44;16.50;99.90
50816;DHT22;39717;47.324;8.788;2022-07-05T03:41:10;16.50;99.90
50816;DHT22;39717;47.324;8.788;2022-07-05T03:43:35;16.50;99.90
50816;DHT22;39717;47.324;8.788;2022-07-05T03:46:01;16.50;99.90
50816;DHT22;39717;47.324;8.788;2022-07-05T03:48:27;16.50;99.90
50816;DHT22;39717;47.324;8.788;2022-07-05T03:50:53;16.60;99.90
50816;DHT22;39717;47.324;8.788;2022-07-05T03:53:18;16.60;99.90
50816;DHT22;39717;47.324;8.788;2022-07-05T03:55:44;16.60;99.90
50816;DHT22;39717;47.324;8.788;2022-07-05T03:58:10;16.60;99.90
50816;DHT22;39717;47.324;8.788;2022-07-05T04:00:36;16.60;99.90
50816;DHT22;39717;47.324;8.788;2022-07-05T04:03:02;16.60;99.90
50816;DHT22;39717;47.324;8.788;2022-07-05T04:05:28;16.60;99.90
50816;DHT22;39717;47.324;8.788;2022-07-05T04:07:55;16.60;99.90
50816;DHT22;39717;47.324;8.788;2022-07-05T04:10:22;16.60;99.90
50816;DHT22;39717;47.324;8.788;2022-07-05T04:12:48;16.60;99.90
50816;DHT22;39717;47.324;8.788;2022-07-05T04:15:14;16.60;99.90
50816;DHT22;39717;47.324;8.788;2022-07-05T04:17:51;16.60;99.90
50816;DHT22;39717;47.324;8.788;2022-07-05T04:20:18;16.60;99.90
50816;DHT22;39717;47.324;8.788;2022-07-05T04:22:44;16.60;99.90
50816;DHT22;39717;47.324;8.788;2022-07-05T04:25:11;16.60;99.90
50816;DHT22;39717;47.324;8.788;2022-07-05T04:27:50;16.60;99.90
50816;DHT22;39717;47.324;8.788;2022-07-05T04:30:19;16.70;99.90
50816;DHT22;39717;47.324;8.788;2022-07-05T04:32:45;16.70;99.90
50816;DHT22;39717;47.324;8.788;2022-07-05T04:35:12;16.70;99.90
50816;DHT22;39717;47.324;8.788;2022-07-05T04:37:39;16.70;99.90
50816;DHT22;39717;47.324;8.788;2022-07-05T04:40:06;16.70;99.90
50816;DHT22;39717;47.324;8.788;2022-07-05T04:42:33;16.70;99.90
50816;DHT22;39717;47.324;8.788;2022-07-05T04:44:59;16.70;99.90
50816;DHT22;39717;47.324;8.788;2022-07-05T04:47:25;16.60;99.90
50816;DHT22;39717;47.324;8.788;2022-07-05T04:49:52;16.70;99.90
50816;DHT22;39717;47.324;8.788;2022-07-05T04:52:18;16.70;99.90
50816;DHT22;39717;47.324;8.788;2022-07-05T04:54:44;16.70;99.90
50816;DHT22;39717;47.324;8.788;2022-07-05T04:57:10;16.70;99.90
50816;DHT22;39717;47.324;8.788;2022-07-05T04:59:35;16.80;99.90
50816;DHT22;39717;47.324;8.788;2022-07-05T05:02:02;16.80;99.90
50816;DHT22;39717;47.324;8.788;2022-07-05T05:04:28;16.80;99.90
50816;DHT22;39717;47.324;8.788;2022-07-05T05:06:55;16.90;99.90
50816;DHT22;39717;47.324;8.788;2022-07-05T05:09:21;16.90;99.90
50816;DHT22;39717;47.324;8.788;2022-07-05T05:11:47;16.90;99.90
50816;DHT22;39717;47.324;8.788;2022-07-05T05:14:13;17.00;99.90
50816;DHT22;39717;47.324;8.788;2022-07-05T05:16:39;17.00;99.90
50816;DHT22;39717;47.324;8.788;2022-07-05T05:19:05;17.00;99.90
50816;DHT22;39717;47.324;8.788;2022-07-05T05:21:31;17.00;99.90
50816;DHT22;39717;47.324;8.788;2022-07-05T05:23:56;17.10;99.90
50816;DHT22;39717;47.324;8.788;2022-07-05T05:26:22;17.10;99.90
50816;DHT22;39717;47.324;8.788;2022-07-05T05:28:48;17.00;99.90
50816;DHT22;39717;47.324;8.788;2022-07-05T05:31:14;17.00;99.90
50816;DHT22;39717;47.324;8.788;2022-07-05T05:33:40;17.00;99.90
50816;DHT22;39717;47.324;8.788;2022-07-05T05:36:06;17.00;99.90
50816;DHT22;39717;47.324;8.788;2022-07-05T05:38:32;17.10;99.90
50816;DHT22;39717;47.324;8.788;2022-07-05T05:40:58;17.10;99.90
50816;DHT22;39717;47.324;8.788;2022-07-05T05:43:24;17.10;99.90
50816;DHT22;39717;47.324;8.788;2022-07-05T05:45:50;17.10;99.90
50816;DHT22;39717;47.324;8.788;2022-07-05T05:48:16;17.20;99.90
50816;DHT22;39717;47.324;8.788;2022-07-05T05:50:42;17.20;99.90
50816;DHT22;39717;47.324;8.788;2022-07-05T05:53:08;17.30;99.90
50816;DHT22;39717;47.324;8.788;2022-07-05T05:55:34;17.30;99.90
50816;DHT22;39717;47.324;8.788;2022-07-05T05:58:19;17.40;99.90
50816;DHT22;39717;47.324;8.788;2022-07-05T06:00:52;17.40;99.90
50816;DHT22;39717;47.324;8.788;2022-07-05T06:03:22;17.30;99.90
50816;DHT22;39717;47.324;8.788;2022-07-05T06:05:48;17.30;99.90
50816;DHT22;39717;47.324;8.788;2022-07-05T06:08:15;17.40;99.90
50816;DHT22;39717;47.324;8.788;2022-07-05T06:10:41;17.40;99.90
50816;DHT22;39717;47.324;8.788;2022-07-05T06:13:08;17.40;99.90
50816;DHT22;39717;47.324;8.788;2022-07-05T06:15:36;17.40;99.90
50816;DHT22;39717;47.324;8.788;2022-07-05T06:18:02;17.40;99.90
50816;DHT22;39717;47.324;8.788;2022-07-05T06:20:33;17.50;99.90
50816;DHT22;39717;47.324;8.788;2022-07-05T06:23:00;17.50;99.90
50816;DHT22;39717;47.324;8.788;2022-07-05T06:25:27;17.50;99.90
50816;DHT22;39717;47.324;8.788;2022-07-05T06:27:56;17.50;99.90
50816;DHT22;39717;47.324;8.788;2022-07-05T06:30:24;17.50;99.90
50816;DHT22;39717;47.324;8.788;2022-07-05T10:53:17;17.60;99.90
50816;DHT22;39717;47.324;8.788;2022-07-05T10:56:09;24.30;52.50
50816;DHT22;39717;47.324;8.788;2022-07-05T11:04:06;24.40;39.70
50816;DHT22;39717;47.324;8.788;2022-07-05T11:12:06;24.80;37.50
50816;DHT22;39717;47.324;8.788;2022-07-05T11:14:34;24.90;33.30
50816;DHT22;39717;47.324;8.788;2022-07-05T11:22:35;25.70;35.20
50816;DHT22;39717;47.324;8.788;2022-07-05T11:25:03;25.50;33.00
50816;DHT22;39717;47.324;8.788;2022-07-05T11:27:29;25.80;33.40
50816;DHT22;39717;47.324;8.788;2022-07-05T11:40:31;25.00;30.00
50816;DHT22;39717;47.324;8.788;2022-07-05T11:42:59;25.30;30.20
50816;DHT22;39717;47.324;8.788;2022-07-05T11:45:25;25.50;28.00
50816;DHT22;39717;47.324;8.788;2022-07-05T11:47:55;25.40;29.40
50816;DHT22;39717;47.324;8.788;2022-07-05T11:50:33;25.60;29.70
50816;DHT22;39717;47.324;8.788;2022-07-05T11:53:00;26.10;29.60
50816;DHT22;39717;47.324;8.788;2022-07-05T11:55:28;26.20;26.60
50816;DHT22;39717;47.324;8.788;2022-07-05T12:20:36;26.60;26.70
50816;DHT22;39717;47.324;8.788;2022-07-05T12:23:02;25.40;27.90
50816;DHT22;39717;47.324;8.788;2022-07-05T12:25:30;25.60;26.70
50816;DHT22;39717;47.324;8.788;2022-07-05T12:30:24;25.40;25.10
50816;DHT22;39717;47.324;8.788;2022-07-05T12:32:57;24.40;27.00
50816;DHT22;39717;47.324;8.788;2022-07-05T12:35:50;24.50;26.50
50816;DHT22;39717;47.324;8.788;2022-07-05T12:38:19;24.80;28.50
50816;DHT22;39717;47.324;8.788;2022-07-05T12:40:47;25.20;28.60
50816;DHT22;39717;47.324;8.788;2022-07-05T12:43:18;25.30;26.80
50816;DHT22;39717;47.324;8.788;2022-07-05T12:45:59;24.80;27.40
50816;DHT22;39717;47.324;8.788;2022-07-05T12:48:37;24.60;27.30
50816;DHT22;39717;47.324;8.788;2022-07-05T12:51:05;24.50;28.10
50816;DHT22;39717;47.324;8.788;2022-07-05T12:53:31;24.70;27.30
50816;DHT22;39717;47.324;8.788;2022-07-05T12:56:15;24.90;28.40
50816;DHT22;39717;47.324;8.788;2022-07-05T12:59:02;24.60;26.80
50816;DHT22;39717;47.324;8.788;2022-07-05T13:01:33;24.50;28.80
50816;DHT22;39717;47.324;8.788;2022-07-05T13:04:17;24.60;29.00
50816;DHT22;39717;47.324;8.788;2022-07-05T13:14:49;25.20;26.10
50816;DHT22;39717;47.324;8.788;2022-07-05T13:17:17;25.20;27.70
50816;DHT22;39717;47.324;8.788;2022-07-05T13:19:45;25.20;27.70
50816;DHT22;39717;47.324;8.788;2022-07-05T13:22:12;25.20;27.70
50816;DHT22;39717;47.324;8.788;2022-07-05T13:24:38;25.20;26.70
50816;DHT22;39717;47.324;8.788;2022-07-05T13:27:07;25.10;27.10
50816;DHT22;39717;47.324;8.788;2022-07-05T13:29:34;25.10;27.20
50816;DHT22;39717;47.324;8.788;2022-07-05T13:32:00;25.00;27.50
50816;DHT22;39717;47.324;8.788;2022-07-05T13:34:26;25.00;27.60
50816;DHT22;39717;47.324;8.788;2022-07-05T13:36:53;25.00;27.60
50816;DHT22;39717;47.324;8.788;2022-07-05T13:39:19;24.90;26.60
50816;DHT22;39717;47.324;8.788;2022-07-05T13:41:50;24.70;26.20
50816;DHT22;39717;47.324;8.788;2022-07-05T13:44:17;24.60;25.70
50816;DHT22;39717;47.324;8.788;2022-07-05T13:46:43;24.70;25.20
50816;DHT22;39717;47.324;8.788;2022-07-05T13:49:09;24.80;25.80
50816;DHT22;39717;47.324;8.788;2022-07-05T13:51:35;24.80;24.70
50816;DHT22;39717;47.324;8.788;2022-07-05T13:54:01;24.80;25.50
50816;DHT22;39717;47.324;8.788;2022-07-05T13:56:27;24.80;24.00
50816;DHT22;39717;47.324;8.788;2022-07-05T13:58:54;24.80;23.80
50816;DHT22;39717;47.324;8.788;2022-07-05T14:01:21;24.80;24.20
50816;DHT22;39717;47.324;8.788;2022-07-05T14:04:00;25.00;23.80
50816;DHT22;39717;47.324;8.788;2022-07-05T14:06:31;25.00;24.00
50816;DHT22;39717;47.324;8.788;2022-07-05T14:08:59;25.00;25.40
50816;DHT22;39717;47.324;8.788;2022-07-05T14:11:26;25.00;24.80
50816;DHT22;39717;47.324;8.788;2022-07-05T14:13:56;25.10;25.50
50816;DHT22;39717;47.324;8.788;2022-07-05T14:16:23;25.00;24.70
50816;DHT22;39717;47.324;8.788;2022-07-05T14:18:50;25.10;24.90
50816;DHT22;39717;47.324;8.788;2022-07-05T14:21:16;25.40;23.20
50816;DHT22;39717;47.324;8.788;2022-07-05T14:23:44;25.50;24.90
50816;DHT22;39717;47.324;8.788;2022-07-05T14:26:15;25.50;23.00
50816;DHT22;39717;47.324;8.788;2022-07-05T14:28:41;25.70;24.70
50816;DHT22;39717;47.324;8.788;2022-07-05T14:31:07;25.70;23.70
50816;DHT22;39717;47.324;8.788;2022-07-05T14:33:33;25.60;23.80
50816;DHT22;39717;47.324;8.788;2022-07-05T14:35:58;25.30;25.10
50816;DHT22;39717;47.324;8.788;2022-07-05T14:38:24;25.30;24.70
50816;DHT22;39717;47.324;8.788;2022-07-05T14:40:50;25.20;24.60
50816;DHT22;39717;47.324;8.788;2022-07-05T14:43:16;25.20;26.00
50816;DHT22;39717;47.324;8.788;2022-07-05T14:45:41;25.30;25.30
50816;DHT22;39717;47.324;8.788;2022-07-05T14:48:07;25.30;24.70
50816;DHT22;39717;47.324;8.788;2022-07-05T14:50:33;25.40;24.50
50816;DHT22;39717;47.324;8.788;2022-07-05T14:52:58;25.50;24.80
50816;DHT22;39717;47.324;8.788;2022-07-05T14:55:31;25.70;26.20
50816;DHT22;39717;47.324;8.788;2022-07-05T14:57:57;25.40;24.40
50816;DHT22;39717;47.324;8.788;2022-07-05T15:00:23;25.40;26.40
50816;DHT22;39717;47.324;8.788;2022-07-05T15:02:48;25.30;25.20
50816;DHT22;39717;47.324;8.788;2022-07-05T15:05:14;25.30;26.90
50816;DHT22;39717;47.324;8.788;2022-07-05T15:07:40;25.30;25.30
50816;DHT22;39717;47.324;8.788;2022-07-05T15:10:07;25.50;25.50
50816;DHT22;39717;47.324;8.788;2022-07-05T15:12:33;25.50;25.90
50816;DHT22;39717;47.324;8.788;2022-07-05T15:14:59;25.40;26.10
50816;DHT22;39717;47.324;8.788;2022-07-05T15:19:52;25.20;25.20
50816;DHT22;39717;47.324;8.788;2022-07-05T15:22:17;25.00;26.10
50816;DHT22;39717;47.324;8.788;2022-07-05T15:24:43;25.00;26.50
50816;DHT22;39717;47.324;8.788;2022-07-05T15:27:09;25.20;26.10
50816;DHT22;39717;47.324;8.788;2022-07-05T15:29:36;25.10;25.10
50816;DHT22;39717;47.324;8.788;2022-07-05T15:32:03;25.30;26.00
50816;DHT22;39717;47.324;8.788;2022-07-05T15:34:28;25.30;25.00
50816;DHT22;39717;47.324;8.788;2022-07-05T15:36:54;25.20;27.20
50816;DHT22;39717;47.324;8.788;2022-07-05T15:39:20;25.00;27.50
50816;DHT22;39717;47.324;8.788;2022-07-05T15:41:48;25.40;27.80
50816;DHT22;39717;47.324;8.788;2022-07-05T15:44:13;25.50;26.80
50816;DHT22;39717;47.324;8.788;2022-07-05T15:46:39;25.60;24.60
50816;DHT22;39717;47.324;8.788;2022-07-05T15:49:24;25.50;24.90
50816;DHT22;39717;47.324;8.788;2022-07-05T15:51:49;25.50;26.70
50816;DHT22;39717;47.324;8.788;2022-07-05T15:54:15;25.50;26.80
50816;DHT22;39717;47.324;8.788;2022-07-05T15:56:41;25.50;26.60
50816;DHT22;39717;47.324;8.788;2022-07-05T15:59:07;25.60;24.90
50816;DHT22;39717;47.324;8.788;2022-07-05T16:01:33;25.50;25.40
50816;DHT22;39717;47.324;8.788;2022-07-05T16:03:59;25.40;25.10
50816;DHT22;39717;47.324;8.788;2022-07-05T16:06:25;25.30;24.40
50816;DHT22;39717;47.324;8.788;2022-07-05T16:08:50;25.40;25.50
50816;DHT22;39717;47.324;8.788;2022-07-05T16:11:16;25.40;25.50
50816;DHT22;39717;47.324;8.788;2022-07-05T16:13:42;25.40;25.20
50816;DHT22;39717;47.324;8.788;2022-07-05T16:16:08;25.30;26.90
50816;DHT22;39717;47.324;8.788;2022-07-05T16:18:41;25.40;25.50
50816;DHT22;39717;47.324;8.788;2022-07-05T16:21:09;25.40;24.80
50816;DHT22;39717;47.324;8.788;2022-07-05T16:23:37;25.30;26.00
50816;DHT22;39717;47.324;8.788;2022-07-05T16:26:04;25.20;25.30
50816;DHT22;39717;47.324;8.788;2022-07-05T16:28:30;24.90;26.10
50816;DHT22;39717;47.324;8.788;2022-07-05T16:31:05;24.70;26.50
50816;DHT22;39717;47.324;8.788;2022-07-05T16:36:06;24.50;28.10
50816;DHT22;39717;47.324;8.788;2022-07-05T16:38:32;24.40;27.00
50816;DHT22;39717;47.324;8.788;2022-07-05T16:40:59;24.40;25.30
50816;DHT22;39717;47.324;8.788;2022-07-05T16:43:25;24.50;25.80
50816;DHT22;39717;47.324;8.788;2022-07-05T16:45:51;24.80;25.80
50816;DHT22;39717;47.324;8.788;2022-07-05T16:48:17;25.00;26.90
50816;DHT22;39717;47.324;8.788;2022-07-05T16:50:43;25.10;27.70
50816;DHT22;39717;47.324;8.788;2022-07-05T16:53:08;25.20;26.60
50816;DHT22;39717;47.324;8.788;2022-07-05T16:55:34;25.30;26.10
50816;DHT22;39717;47.324;8.788;2022-07-05T16:58:00;24.90;26.70
50816;DHT22;39717;47.324;8.788;2022-07-05T17:00:29;24.80;26.40
50816;DHT22;39717;47.324;8.788;2022-07-05T17:02:56;24.90;28.20
50816;DHT22;39717;47.324;8.788;2022-07-05T17:05:22;24.80;26.80
50816;DHT22;39717;47.324;8.788;2022-07-05T17:07:48;24.60;27.20
50816;DHT22;39717;47.324;8.788;2022-07-05T17:10:14;24.80;26.40
50816;DHT22;39717;47.324;8.788;2022-07-05T17:12:40;25.00;26.00
50816;DHT22;39717;47.324;8.788;2022-07-05T17:15:06;25.00;26.80
50816;DHT22;39717;47.324;8.788;2022-07-05T17:17:35;25.10;26.80
50816;DHT22;39717;47.324;8.788;2022-07-05T17:20:01;25.20;27.70
50816;DHT22;39717;47.324;8.788;2022-07-05T17:22:27;25.20;26.60
50816;DHT22;39717;47.324;8.788;2022-07-05T17:24:53;25.20;26.90
50816;DHT22;39717;47.324;8.788;2022-07-05T17:27:18;25.30;26.00
50816;DHT22;39717;47.324;8.788;2022-07-05T17:29:44;25.20;25.50
50816;DHT22;39717;47.324;8.788;2022-07-05T17:32:10;25.10;26.50
50816;DHT22;39717;47.324;8.788;2022-07-05T17:34:36;25.00;27.20
50816;DHT22;39717;47.324;8.788;2022-07-05T17:37:02;25.00;26.20
50816;DHT22;39717;47.324;8.788;2022-07-05T17:39:28;25.20;25.80
50816;DHT22;39717;47.324;8.788;2022-07-05T17:41:54;25.10;27.00
50816;DHT22;39717;47.324;8.788;2022-07-05T17:44:20;25.20;26.60
50816;DHT22;39717;47.324;8.788;2022-07-05T17:46:46;25.50;27.00
50816;DHT22;39717;47.324;8.788;2022-07-05T17:49:12;25.50;26.70
50816;DHT22;39717;47.324;8.788;2022-07-05T17:51:37;25.30;26.60
50816;DHT22;39717;47.324;8.788;2022-07-05T17:54:03;25.20;24.10
50816;DHT22;39717;47.324;8.788;2022-07-05T17:56:29;25.10;25.80
50816;DHT22;39717;47.324;8.788;2022-07-05T17:58:55;25.10;25.40
50816;DHT22;39717;47.324;8.788;2022-07-05T18:01:21;25.00;26.70
50816;DHT22;39717;47.324;8.788;2022-07-05T18:03:46;25.00;27.20
50816;DHT22;39717;47.324;8.788;2022-07-05T18:06:14;25.00;25.80
50816;DHT22;39717;47.324;8.788;2022-07-05T18:08:40;25.00;25.30
50816;DHT22;39717;47.324;8.788;2022-07-05T18:11:06;24.90;25.70
50816;DHT22;39717;47.324;8.788;2022-07-05T18:13:32;24.80;24.50
50816;DHT22;39717;47.324;8.788;2022-07-05T18:15:58;24.80;25.10
50816;DHT22;39717;47.324;8.788;2022-07-05T18:18:23;24.70;25.00
50816;DHT22;39717;47.324;8.788;2022-07-05T18:20:50;24.60;26.20
50816;DHT22;39717;47.324;8.788;2022-07-05T18:23:16;24.60;26.40
50816;DHT22;39717;47.324;8.788;2022-07-05T18:25:42;24.60;26.30
50816;DHT22;39717;47.324;8.788;2022-07-05T18:28:10;24.50;25.90
50816;DHT22;39717;47.324;8.788;2022-07-05T18:50:08;24.40;27.00
50816;DHT22;39717;47.324;8.788;2022-07-05T18:52:35;23.40;27.60
50816;DHT22;39717;47.324;8.788;2022-07-05T19:07:12;23.30;28.40
50816;DHT22;39717;47.324;8.788;2022-07-05T19:09:56;22.80;27.40
50816;DHT22;39717;47.324;8.788;2022-07-05T19:44:48;21.50;32.70
50816;DHT22;39717;47.324;8.788;2022-07-05T19:47:13;21.30;34.60
50816;DHT22;39717;47.324;8.788;2022-07-05T19:49:39;21.20;32.80
50816;DHT22;39717;47.324;8.788;2022-07-05T19:52:05;21.10;34.40
50816;DHT22;39717;47.324;8.788;2022-07-05T19:54:31;21.00;36.30
50816;DHT22;39717;47.324;8.788;2022-07-05T19:56:57;21.00;36.80
50816;DHT22;39717;47.324;8.788;2022-07-05T19:59:24;20.90;39.00
50816;DHT22;39717;47.324;8.788;2022-07-05T20:01:50;20.80;50.10
50816;DHT22;39717;47.324;8.788;2022-07-05T20:04:16;20.70;51.80
50816;DHT22;39717;47.324;8.788;2022-07-05T20:35:57;19.90;52.40
50816;DHT22;39717;47.324;8.788;2022-07-05T20:40:49;19.70;78.50
50816;DHT22;39717;47.324;8.788;2022-07-05T20:43:14;19.60;68.00
50816;DHT22;39717;47.324;8.788;2022-07-05T20:45:40;19.60;81.30
50816;DHT22;39717;47.324;8.788;2022-07-05T20:48:06;19.50;73.80
50816;DHT22;39717;47.324;8.788;2022-07-05T20:50:32;19.50;76.90
50816;DHT22;39717;47.324;8.788;2022-07-05T20:52:58;19.40;79.00
50816;DHT22;39717;47.324;8.788;2022-07-05T20:55:24;19.30;79.60
50816;DHT22;39717;47.324;8.788;2022-07-05T20:57:49;19.30;80.80
50816;DHT22;39717;47.324;8.788;2022-07-05T21:00:15;19.30;86.20
50816;DHT22;39717;47.324;8.788;2022-07-05T21:02:41;19.20;86.80
50816;DHT22;39717;47.324;8.788;2022-07-05T21:05:07;19.10;86.80
50816;DHT22;39717;47.324;8.788;2022-07-05T21:07:33;19.00;85.90
50816;DHT22;39717;47.324;8.788;2022-07-05T21:09:59;19.00;86.10
50816;DHT22;39717;47.324;8.788;2022-07-05T21:12:24;19.00;86.00
50816;DHT22;39717;47.324;8.788;2022-07-05T21:14:50;18.80;89.50
50816;DHT22;39717;47.324;8.788;2022-07-05T21:17:16;18.80;91.90
50816;DHT22;39717;47.324;8.788;2022-07-05T21:19:42;18.60;92.20
50816;DHT22;39717;47.324;8.788;2022-07-05T21:22:08;18.60;92.30
50816;DHT22;39717;47.324;8.788;2022-07-05T21:24:36;18.50;92.40
50816;DHT22;39717;47.324;8.788;2022-07-05T21:27:03;18.50;93.30
50816;DHT22;39717;47.324;8.788;2022-07-05T21:29:29;18.50;93.10
50816;DHT22;39717;47.324;8.788;2022-07-05T21:31:55;18.40;92.50
50816;DHT22;39717;47.324;8.788;2022-07-05T21:34:22;18.40;94.00
50816;DHT22;39717;47.324;8.788;2022-07-05T21:36:48;18.40;94.90
50816;DHT22;39717;47.324;8.788;2022-07-05T21:39:13;18.40;95.60
50816;DHT22;39717;47.324;8.788;2022-07-05T21:41:39;18.30;92.90
50816;DHT22;39717;47.324;8.788;2022-07-05T21:44:05;18.30;93.00
50816;DHT22;39717;47.324;8.788;2022-07-05T21:46:31;18.30;92.60
50816;DHT22;39717;47.324;8.788;2022-07-05T21:48:57;18.20;92.80
50816;DHT22;39717;47.324;8.788;2022-07-05T21:51:29;18.20;93.30
50816;DHT22;39717;47.324;8.788;2022-07-05T21:53:56;18.20;93.30
50816;DHT22;39717;47.324;8.788;2022-07-05T21:56:22;18.20;92.80
50816;DHT22;39717;47.324;8.788;2022-07-05T21:58:47;18.10;92.60
50816;DHT22;39717;47.324;8.788;2022-07-05T22:01:32;18.00;93.10
50816;DHT22;39717;47.324;8.788;2022-07-05T22:04:16;18.00;93.80
50816;DHT22;39717;47.324;8.788;2022-07-05T22:06:52;18.00;95.40
50816;DHT22;39717;47.324;8.788;2022-07-05T22:09:18;18.00;95.50
50816;DHT22;39717;47.324;8.788;2022-07-05T22:11:44;18.00;94.70
50816;DHT22;39717;47.324;8.788;2022-07-05T22:14:10;17.90;91.60
50816;DHT22;39717;47.324;8.788;2022-07-05T22:16:36;17.90;91.30
50816;DHT22;39717;47.324;8.788;2022-07-05T22:19:02;17.80;91.30
50816;DHT22;39717;47.324;8.788;2022-07-05T22:21:29;17.80;90.30
50816;DHT22;39717;47.324;8.788;2022-07-05T22:23:54;17.80;90.00
50816;DHT22;39717;47.324;8.788;2022-07-05T22:26:20;17.80;88.80
50816;DHT22;39717;47.324;8.788;2022-07-05T22:28:46;17.80;90.20
50816;DHT22;39717;47.324;8.788;2022-07-05T22:31:13;17.90;90.00